Time;durP1;ratioP1;P1;durP2;ratioP2;P2;SDS_P1;SDS_P2;PMS_P1;PMS_P2;Temp;Humidity;BMP_temperature;BMP_pressure;BME280_temperature;BME280_humidity;BME280_pressure;Samples;Min_cycle;Max_cycle;Signal;HPM_P1;HPM_P2
2021/06/02 00:02:20;;;;;;;6.90;1.75;;;;;;;11.56;60.56;101544.81;5014072;28;20032;-77
2021/06/02 00:04:53;;;;;;;6.40;1.40;;;;;;;11.65;60.62;101556.06;5014098;28;20071;-77
2021/06/02 00:07:23;;;;;;;4.80;1.40;;;;;;;11.56;60.46;101552.91;5014041;28;20050;-77
2021/06/02 00:09:49;;;;;;;5.25;1.52;;;;;;;11.57;60.70;101554.63;5013743;28;20111;-77
2021/06/02 00:12:15;;;;;;;2.33;1.30;;;;;;;11.51;61.82;101552.25;4997602;28;20029;-77
2021/06/02 00:14:40;;;;;;;4.45;1.70;;;;;;;11.49;61.55;101546.06;4997344;28;20496;-76
2021/06/02 00:17:06;;;;;;;5.43;1.67;;;;;;;11.42;60.78;101533.88;5014079;28;20079;-77
2021/06/02 00:19:32;;;;;;;3.00;1.40;;;;;;;11.43;61.89;101548.19;5014028;28;20028;-76
2021/06/02 00:21:59;;;;;;;4.80;1.50;;;;;;;11.40;61.65;101543.84;5013810;28;20030;-77
2021/06/02 00:24:25;;;;;;;3.65;1.38;;;;;;;11.36;61.37;101544.94;5013383;28;20030;-77
2021/06/02 00:26:55;;;;;;;3.25;1.20;;;;;;;11.31;63.13;101536.22;4997331;28;20037;-77
2021/06/02 00:29:23;;;;;;;4.10;1.30;;;;;;;11.30;62.31;101551.50;5010559;28;20523;-77
2021/06/02 00:31:48;;;;;;;4.35;1.67;;;;;;;11.27;62.84;101545.38;4994040;28;20030;-77
2021/06/02 00:34:14;;;;;;;3.85;0.90;;;;;;;11.21;62.58;101541.19;4977845;28;20041;-77
2021/06/02 00:36:41;;;;;;;2.80;1.20;;;;;;;11.20;63.67;101552.00;4993342;28;20021;-77
2021/06/02 00:39:08;;;;;;;3.50;1.15;;;;;;;11.15;63.79;101542.31;5032988;28;20021;-77
2021/06/02 00:41:35;;;;;;;2.80;1.63;;;;;;;11.19;63.41;101551.13;5033292;28;20500;-77
2021/06/02 00:44:05;;;;;;;4.85;1.50;;;;;;;11.11;63.68;101553.31;5033253;28;20267;-77
2021/06/02 00:46:31;;;;;;;3.25;1.45;;;;;;;11.09;64.31;101552.50;5019945;28;20021;-77
2021/06/02 00:49:00;;;;;;;6.60;1.73;;;;;;;11.09;65.01;101549.81;4997874;28;20529;-76
2021/06/02 00:51:26;;;;;;;2.67;1.08;;;;;;;11.10;64.34;101546.19;5013072;28;20114;-77
2021/06/02 00:53:53;;;;;;;3.63;1.42;;;;;;;11.03;63.59;101548.31;5013199;28;20022;-77
2021/06/02 00:56:38;;;;;;;4.75;1.40;;;;;;;11.06;63.85;101550.84;5007915;28;20113;-76
2021/06/02 00:59:04;;;;;;;4.28;1.48;;;;;;;11.07;65.06;101549.91;5012991;28;20041;-77
2021/06/02 01:01:35;;;;;;;3.83;1.45;;;;;;;10.94;64.74;101548.75;5012857;28;20026;-77
2021/06/02 01:04:02;;;;;;;2.17;1.05;;;;;;;10.97;64.94;101559.34;5012895;28;20029;-77
2021/06/02 01:06:29;;;;;;;3.92;1.38;;;;;;;10.88;65.77;101549.88;5012823;28;21938;-76
2021/06/02 01:08:58;;;;;;;7.22;1.33;;;;;;;10.96;65.32;101546.84;5017645;28;20111;-78
2021/06/02 01:11:25;;;;;;;3.08;1.63;;;;;;;10.99;65.01;101549.38;5012671;28;20026;-77
2021/06/02 01:13:51;;;;;;;2.10;1.00;;;;;;;10.96;65.19;101546.84;5012128;28;20080;-77
2021/06/02 01:16:18;;;;;;;3.08;1.20;;;;;;;10.93;65.67;101557.72;5012704;28;20436;-77
2021/06/02 01:18:44;;;;;;;3.17;1.40;;;;;;;10.80;65.97;101553.91;5005659;28;20450;-77
2021/06/02 01:21:11;;;;;;;4.57;1.30;;;;;;;10.85;65.56;101559.94;4996175;28;20116;-77
2021/06/02 01:23:36;;;;;;;4.90;1.40;;;;;;;10.84;66.09;101561.75;4996141;28;20026;-78
2021/06/02 01:26:02;;;;;;;2.58;1.02;;;;;;;10.78;65.67;101551.28;5012202;28;20164;-78
2021/06/02 01:28:28;;;;;;;3.90;1.10;;;;;;;10.73;66.87;101548.78;5012650;28;20033;-78
2021/06/02 01:30:53;;;;;;;2.08;1.15;;;;;;;10.73;66.49;101547.94;5007407;28;20481;-78
2021/06/02 01:33:35;;;;;;;2.75;1.17;;;;;;;10.67;67.03;101558.94;5004478;28;20030;-78
2021/06/02 01:36:04;;;;;;;2.58;1.15;;;;;;;10.62;66.80;101563.66;5012611;28;20026;-78
2021/06/02 01:38:48;;;;;;;5.18;1.45;;;;;;;10.67;67.13;101562.50;5012453;28;20160;-77
2021/06/02 01:41:20;;;;;;;4.00;1.08;;;;;;;10.69;68.42;101557.94;5009255;28;20077;-77
2021/06/02 01:44:23;;;;;;;3.17;1.13;;;;;;;10.67;68.00;101562.50;5022999;28;20040;-78
2021/06/02 01:47:02;;;;;;;4.65;1.10;;;;;;;10.60;68.27;101557.50;4992755;28;20022;-78
2021/06/02 01:50:05;;;;;;;4.32;1.50;;;;;;;10.54;69.13;101558.66;5021029;28;20029;-77
2021/06/02 01:52:52;;;;;;;3.03;1.05;;;;;;;10.49;67.69;101556.19;5048554;28;20556;-77
2021/06/02 01:55:45;;;;;;;5.57;1.52;;;;;;;10.44;69.24;101554.63;5021061;28;20477;-77
2021/06/02 01:58:32;;;;;;;3.50;1.60;;;;;;;10.46;68.03;101563.50;5009123;28;20094;-78
2021/06/02 02:01:17;;;;;;;3.78;1.00;;;;;;;10.42;68.73;101556.50;5000437;28;20073;-77
2021/06/02 02:04:01;;;;;;;6.07;1.65;;;;;;;10.40;68.87;101564.66;5009067;28;20053;-78
2021/06/02 02:06:45;;;;;;;4.60;1.00;;;;;;;10.35;68.51;101565.78;5009134;28;20030;-77
2021/06/02 02:09:16;;;;;;;3.83;1.17;;;;;;;10.31;68.50;101565.91;5032475;28;20053;-78
2021/06/02 02:11:42;;;;;;;4.72;1.20;;;;;;;10.21;69.61;101558.28;5028362;28;20026;-77
2021/06/02 02:14:45;;;;;;;4.55;2.28;;;;;;;10.26;69.39;101567.91;5018817;28;20505;-77
2021/06/02 02:17:44;;;;;;;4.55;1.75;;;;;;;10.21;69.33;101569.94;5016389;28;20029;-78
2021/06/02 02:20:18;;;;;;;5.05;1.20;;;;;;;10.25;68.98;101557.22;5000232;28;20470;-78
2021/06/02 02:23:10;;;;;;;3.08;1.20;;;;;;;10.18;70.35;101570.03;5016285;28;20026;-78
2021/06/02 02:25:44;;;;;;;4.30;1.33;;;;;;;10.14;69.70;101562.19;5015096;28;20052;-78
2021/06/02 02:28:25;;;;;;;6.07;1.50;;;;;;;10.12;70.93;101564.97;5016259;28;20026;-78
2021/06/02 02:31:02;;;;;;;3.53;1.55;;;;;;;10.15;70.84;101569.31;5015985;28;20029;-78
2021/06/02 02:33:55;;;;;;;2.63;1.10;;;;;;;10.19;69.55;101566.44;5016071;28;20095;-78
2021/06/02 02:36:36;;;;;;;4.93;1.23;;;;;;;10.24;69.28;101566.25;5014515;28;20031;-78
2021/06/02 02:39:21;;;;;;;3.60;1.42;;;;;;;10.25;70.73;101573.34;4999717;28;20024;-77
2021/06/02 02:42:11;;;;;;;4.43;1.67;;;;;;;10.22;70.03;101560.06;4995972;28;20120;-79
2021/06/02 02:44:53;;;;;;;3.20;1.33;;;;;;;10.22;70.43;101568.97;5012385;28;20057;-77
2021/06/02 02:47:57;;;;;;;6.13;2.05;;;;;;;10.28;69.69;101567.81;4996283;28;20023;-78
2021/06/02 02:50:32;;;;;;;2.65;1.00;;;;;;;10.32;68.97;101570.34;4972651;28;20091;-78
2021/06/02 02:53:31;;;;;;;3.67;1.20;;;;;;;10.25;70.05;101571.53;4995805;28;20026;-77
2021/06/02 02:56:02;;;;;;;2.22;1.30;;;;;;;10.27;70.32;101572.31;4996772;28;20019;-78
2021/06/02 02:58:53;;;;;;;3.00;1.38;;;;;;;10.31;70.96;101576.66;5015576;28;20037;-78
2021/06/02 03:01:24;;;;;;;5.32;1.55;;;;;;;10.25;70.57;101576.03;5015220;28;20022;-78
2021/06/02 03:03:55;;;;;;;4.05;1.55;;;;;;;10.27;71.88;101579.53;5015608;28;20018;-78
2021/06/02 03:06:20;;;;;;;4.57;1.67;;;;;;;10.30;70.63;101580.31;5031769;28;20021;-78
2021/06/02 03:09:03;;;;;;;4.90;1.60;;;;;;;10.40;71.27;101580.78;5034840;28;20045;-78
2021/06/02 03:11:31;;;;;;;4.35;1.67;;;;;;;10.38;70.48;101576.41;5035358;28;20022;-78
2021/06/02 03:14:15;;;;;;;3.65;1.40;;;;;;;10.34;70.45;101577.47;5035133;28;20025;-78
2021/06/02 03:16:41;;;;;;;9.57;1.75;;;;;;;10.32;71.41;101572.16;5024748;28;20037;-78
2021/06/02 03:19:16;;;;;;;3.83;1.80;;;;;;;10.29;71.75;101581.22;5015319;28;20021;-78
2021/06/02 03:22:02;;;;;;;6.45;1.73;;;;;;;10.23;72.46;101592.19;4998134;28;20030;-78
2021/06/02 03:25:08;;;;;;;4.72;1.50;;;;;;;10.22;71.95;101584.22;5014900;28;20030;-78
2021/06/02 03:27:56;;;;;;;6.00;2.38;;;;;;;10.21;72.62;101586.06;4961704;28;20106;-78
2021/06/02 03:30:29;;;;;;;4.15;1.48;;;;;;;10.21;72.67;101587.84;4998643;28;20485;-78
2021/06/02 03:33:25;;;;;;;6.63;1.83;;;;;;;10.18;71.82;101583.47;5023747;28;20547;-78
2021/06/02 03:36:02;;;;;;;4.03;1.95;;;;;;;10.23;72.05;101584.13;5014823;28;20029;-77
2021/06/02 03:38:55;;;;;;;4.95;1.88;;;;;;;10.18;72.49;101587.97;5016110;28;20022;-78
2021/06/02 03:41:47;;;;;;;6.63;1.85;;;;;;;10.18;72.17;101579.91;5014522;28;20121;-78
2021/06/02 03:44:32;;;;;;;10.20;1.83;;;;;;;10.18;73.00;101578.09;4998344;28;20124;-78
2021/06/02 03:47:30;;;;;;;3.88;1.65;;;;;;;10.21;72.10;101591.41;5011398;28;20438;-77
2021/06/02 03:50:06;;;;;;;8.27;1.80;;;;;;;10.28;72.12;101592.94;4995854;28;20471;-78
2021/06/02 03:53:02;;;;;;;7.07;2.28;;;;;;;10.28;71.56;101592.00;5011310;28;20521;-77
2021/06/02 03:55:31;;;;;;;3.15;1.50;;;;;;;10.40;71.43;101588.81;5029843;28;20018;-77
2021/06/02 03:58:00;;;;;;;6.32;1.80;;;;;;;10.48;70.60;101599.22;5034194;28;20037;-78
2021/06/02 04:00:41;;;;;;;5.47;2.30;;;;;;;10.53;71.22;101595.38;5017537;28;20029;-78
2021/06/02 04:03:12;;;;;;;5.43;2.30;;;;;;;10.59;70.41;101594.25;5034127;28;20052;-78
2021/06/02 04:05:52;;;;;;;3.90;1.88;;;;;;;10.67;71.33;101594.75;4994906;28;20026;-78
2021/06/02 04:08:37;;;;;;;5.70;2.03;;;;;;;10.75;71.22;101597.13;4994607;28;20384;-78
2021/06/02 04:11:14;;;;;;;4.45;2.08;;;;;;;10.86;70.24;101600.19;4999877;28;20026;-78
2021/06/02 04:13:53;;;;;;;3.90;1.95;;;;;;;10.87;70.68;101606.44;4994799;28;20038;-78
2021/06/02 04:16:22;;;;;;;7.13;2.05;;;;;;;10.81;70.29;101604.00;4994643;28;20092;-77
2021/06/02 04:18:48;;;;;;;6.90;1.95;;;;;;;10.88;71.13;101600.09;4978372;28;20027;-78
2021/06/02 04:21:16;;;;;;;8.90;2.07;;;;;;;11.01;70.36;101609.34;4994374;28;20030;-78
2021/06/02 04:23:43;;;;;;;8.00;1.63;;;;;;;11.14;69.96;101615.03;4994315;28;20362;-78
2021/06/02 04:26:09;;;;;;;4.97;2.22;;;;;;;11.15;70.68;101612.25;4994405;28;20080;-78
2021/06/02 04:28:35;;;;;;;5.22;2.17;;;;;;;11.23;69.43;101601.16;4994454;28;20117;-78
2021/06/02 04:31:06;;;;;;;7.15;2.00;;;;;;;11.33;70.08;101610.53;4999554;28;20017;-78
2021/06/02 04:33:33;;;;;;;5.85;2.50;;;;;;;11.20;70.04;101603.13;5013164;28;20030;-77
2021/06/02 04:35:58;;;;;;;6.47;2.55;;;;;;;11.28;69.70;101601.81;5013717;28;20021;-78
2021/06/02 04:38:24;;;;;;;5.10;2.30;;;;;;;11.29;70.63;101608.06;5013538;28;20493;-77
2021/06/02 04:40:50;;;;;;;7.05;2.63;;;;;;;11.34;70.11;101611.38;5013612;28;20030;-78
2021/06/02 04:43:16;;;;;;;6.63;2.08;;;;;;;11.45;69.73;101608.19;5013198;28;20027;-78
2021/06/02 04:45:53;;;;;;;7.30;2.30;;;;;;;11.35;70.09;101607.78;5028050;28;20105;-78
2021/06/02 04:48:18;;;;;;;3.88;2.13;;;;;;;11.42;70.82;101603.84;4994235;28;20045;-78
2021/06/02 04:50:50;;;;;;;7.72;2.25;;;;;;;11.42;70.06;101611.91;4977564;28;20030;-77
2021/06/02 04:53:39;;;;;;;8.98;3.25;;;;;;;11.49;70.17;101621.44;4977696;28;20469;-78
2021/06/02 04:56:19;;;;;;;;;;;;;;;11.59;70.37;101616.47;5010380;28;20034;-78
2021/06/02 04:59:23;;;;;;;10.35;2.35;;;;;;;11.96;68.77;101615.53;4994954;28;20095;-77
2021/06/02 05:02:07;;;;;;;8.43;2.50;;;;;;;12.23;68.53;101615.09;4996783;28;20026;-78
2021/06/02 05:04:44;;;;;;;9.57;2.75;;;;;;;12.25;68.31;101618.56;5015475;28;20025;-78
2021/06/02 05:07:38;;;;;;;5.50;2.70;;;;;;;12.31;67.90;101620.94;5013343;28;20029;-78
2021/06/02 05:10:41;;;;;;;9.00;3.10;;;;;;;12.57;67.52;101626.78;5012708;28;20091;-77
2021/06/02 05:13:18;;;;;;;5.80;2.65;;;;;;;12.65;66.77;101627.28;5017663;28;20033;-78
2021/06/02 05:16:11;;;;;;;6.95;2.78;;;;;;;12.67;66.79;101622.69;5014010;28;20066;-78
2021/06/02 05:19:34;;;;;;;8.57;3.17;;;;;;;12.72;66.35;101631.38;5019888;28;20038;-78
2021/06/02 05:22:15;;;;;;;6.53;3.05;;;;;;;12.77;67.61;101629.31;5012648;28;20037;-77
2021/06/02 05:24:58;;;;;;;6.95;2.10;;;;;;;12.96;66.14;101639.97;5010793;28;20180;-79
2021/06/02 05:27:43;;;;;;;8.65;3.05;;;;;;;12.82;65.84;101627.22;5012740;28;20457;-79
2021/06/02 05:30:17;;;;;;;6.45;2.63;;;;;;;13.12;65.99;101637.31;5009595;28;20085;-78
2021/06/02 05:33:16;;;;;;;9.25;3.40;;;;;;;13.12;64.98;101633.75;5009309;28;20064;-78
2021/06/02 05:36:16;;;;;;;6.60;3.10;;;;;;;13.34;64.97;101639.72;5009348;28;20465;-78
2021/06/02 05:39:00;;;;;;;7.30;2.60;;;;;;;13.63;64.99;101629.97;4993218;28;20037;-78
2021/06/02 05:41:53;;;;;;;6.80;2.67;;;;;;;13.81;64.19;101641.56;5009664;28;20081;-78
2021/06/02 05:44:33;;;;;;;8.93;3.00;;;;;;;14.22;62.19;101642.78;5012917;28;20045;-78
2021/06/02 05:47:20;;;;;;;8.07;3.28;;;;;;;14.76;60.09;101637.75;5010707;28;20489;-77
2021/06/02 05:50:19;;;;;;;10.40;3.50;;;;;;;15.48;58.41;101641.28;5009497;28;20034;-78
2021/06/02 05:53:29;;;;;;;6.65;2.20;;;;;;;16.14;56.38;101639.66;4993071;28;20085;-78
2021/06/02 05:56:29;;;;;;;9.27;2.85;;;;;;;16.88;54.09;101628.28;5010635;28;20038;-78
2021/06/02 05:59:31;;;;;;;7.55;2.30;;;;;;;16.51;55.54;101636.25;5009068;28;20041;-78
2021/06/02 06:02:01;;;;;;;7.18;2.47;;;;;;;16.26;56.87;101628.94;5013570;28;20460;-78
2021/06/02 06:04:54;;;;;;;8.05;2.80;;;;;;;15.70;57.83;101631.75;4976779;28;20026;-77
2021/06/02 06:07:51;;;;;;;10.27;2.80;;;;;;;15.41;59.55;101634.53;5009144;28;20026;-77
2021/06/02 06:10:54;;;;;;;13.02;3.13;;;;;;;15.25;59.90;101639.19;5013848;28;20453;-78
2021/06/02 06:13:59;;;;;;;4.40;2.33;;;;;;;15.65;58.15;101631.19;5009011;28;20117;-77
2021/06/02 06:16:47;;;;;;;9.48;2.75;;;;;;;15.91;58.79;101624.06;5019864;28;20137;-79
2021/06/02 06:19:16;;;;;;;7.95;2.60;;;;;;;16.44;56.49;101624.97;5010981;28;20052;-79
2021/06/02 06:22:03;;;;;;;6.22;2.50;;;;;;;17.26;52.66;101625.50;5021368;28;20040;-79
2021/06/02 06:24:47;;;;;;;7.82;2.60;;;;;;;17.27;51.30;101635.41;5014183;28;20022;-78
2021/06/02 06:27:33;;;;;;;7.95;2.33;;;;;;;18.03;49.84;101628.00;5012627;28;20037;-78
2021/06/02 06:30:10;;;;;;;6.28;2.85;;;;;;;18.71;46.77;101626.38;5002681;28;20025;-81
2021/06/02 06:32:36;;;;;;;5.78;2.40;;;;;;;20.27;44.48;101628.19;5013609;28;20469;-78
2021/06/02 06:35:04;;;;;;;8.10;2.28;;;;;;;20.09;44.26;101625.16;5012233;28;20146;-81
2021/06/02 06:37:32;;;;;;;5.07;2.00;;;;;;;19.57;45.27;101622.19;5012248;28;20037;-79
2021/06/02 06:40:00;;;;;;;6.80;1.88;;;;;;;20.36;43.95;101631.00;4995575;28;20125;-85
2021/06/02 06:42:27;;;;;;;7.50;2.35;;;;;;;20.91;40.58;101638.13;5014618;28;20068;-83
2021/06/02 06:44:56;;;;;;;6.85;2.30;;;;;;;20.97;42.02;101626.66;5014731;28;20446;-83
2021/06/02 06:47:23;;;;;;;11.25;3.17;;;;;;;20.67;41.91;101627.50;5016212;28;20167;-81
2021/06/02 06:49:55;;;;;;;8.23;2.80;;;;;;;20.70;41.95;101617.19;5023269;28;20025;-80
2021/06/02 06:52:24;;;;;;;5.80;2.13;;;;;;;21.51;39.88;101621.88;5012184;28;20524;-80
2021/06/02 06:54:52;;;;;;;5.53;2.45;;;;;;;20.35;42.24;101633.84;5011880;28;20026;-85
2021/06/02 06:57:21;;;;;;;5.15;2.05;;;;;;;20.78;42.18;101633.75;5013515;28;20044;-79
2021/06/02 06:59:47;;;;;;;6.85;2.60;;;;;;;20.63;40.90;101628.75;4995439;28;20021;-85
2021/06/02 07:02:14;;;;;;;6.30;2.50;;;;;;;21.56;40.58;101615.00;5002034;28;20034;-79
2021/06/02 07:04:40;;;;;;;5.15;2.10;;;;;;;22.46;38.25;101622.13;5015304;28;20040;-79
2021/06/02 07:07:10;;;;;;;6.90;2.57;;;;;;;22.69;36.85;101611.69;5021249;28;20029;-78
2021/06/02 07:09:36;;;;;;;7.07;2.20;;;;;;;23.68;35.02;101611.16;5026355;28;20034;-85
2021/06/02 07:12:01;;;;;;;5.43;1.97;;;;;;;22.85;36.57;101613.81;5014772;28;20489;-80
2021/06/02 07:14:30;;;;;;;6.10;2.58;;;;;;;21.33;40.02;101621.66;4998705;28;20080;-79
2021/06/02 07:17:03;;;;;;;7.43;2.88;;;;;;;18.86;46.43;101616.16;5016795;28;20033;-86
2021/06/02 07:19:30;;;;;;;6.85;2.85;;;;;;;20.15;44.29;101605.56;5016162;28;20029;-80
2021/06/02 07:21:56;;;;;;;10.32;2.22;;;;;;;20.12;43.27;101617.59;5014857;28;20037;-80
2021/06/02 07:24:22;;;;;;;6.05;2.40;;;;;;;19.40;44.14;101607.25;4998945;28;20030;-81
2021/06/02 07:26:47;;;;;;;6.90;2.30;;;;;;;19.49;43.91;101614.63;4999143;28;20018;-80
2021/06/02 07:29:14;;;;;;;7.80;2.75;;;;;;;20.21;41.50;101615.91;5008136;28;20036;-81
2021/06/02 07:31:39;;;;;;;4.23;2.10;;;;;;;22.68;37.98;101618.19;5026914;28;20026;-80
2021/06/02 07:34:06;;;;;;;4.85;2.42;;;;;;;21.79;37.55;101618.34;5034991;28;20075;-82
2021/06/02 07:36:31;;;;;;;6.07;2.15;;;;;;;21.97;37.01;101607.53;5035179;28;20025;-81
2021/06/02 07:38:57;;;;;;;7.07;2.28;;;;;;;23.54;35.18;101611.69;5012570;28;20026;-81
2021/06/02 07:41:22;;;;;;;7.22;2.70;;;;;;;24.65;33.25;101606.78;5015000;28;20030;-79
2021/06/02 07:43:47;;;;;;;6.67;2.20;;;;;;;26.16;31.56;101598.81;5019581;28;20034;-79
2021/06/02 07:46:12;;;;;;;6.77;1.83;;;;;;;27.57;29.13;101612.13;5034615;28;20038;-79
2021/06/02 07:48:38;;;;;;;4.93;2.07;;;;;;;25.34;31.10;101598.56;5034618;28;20124;-82
2021/06/02 07:51:03;;;;;;;4.97;1.80;;;;;;;24.92;32.54;101613.97;5034597;28;20067;-81
2021/06/02 07:53:29;;;;;;;6.40;2.10;;;;;;;25.34;31.92;101613.22;5034275;28;20428;-79
2021/06/02 07:55:54;;;;;;;5.50;2.30;;;;;;;25.04;32.47;101610.94;5034704;28;20028;-80
2021/06/02 07:58:20;;;;;;;6.10;2.00;;;;;;;26.36;30.26;101611.19;5006005;28;20520;-79
2021/06/02 08:00:45;;;;;;;6.70;1.97;;;;;;;26.86;29.64;101612.03;5013635;28;20037;-79
2021/06/02 08:03:10;;;;;;;6.93;2.40;;;;;;;25.23;30.32;101605.25;5017192;28;20033;-83
2021/06/02 08:05:36;;;;;;;5.63;1.80;;;;;;;26.95;28.47;101599.94;5034639;28;20083;-80
2021/06/02 08:08:01;;;;;;;9.27;2.03;;;;;;;27.21;28.71;101607.97;4999161;28;20041;-79
2021/06/02 08:10:26;;;;;;;11.47;2.13;;;;;;;29.54;24.99;101601.03;5014171;28;20033;-82
2021/06/02 08:12:52;;;;;;;5.57;1.60;;;;;;;27.94;26.61;101610.56;5014759;28;20084;-81
2021/06/02 08:15:18;;;;;;;4.30;2.10;;;;;;;25.01;30.91;101622.28;5014528;28;20026;-86
2021/06/02 08:17:43;;;;;;;3.95;1.73;;;;;;;27.57;26.98;101609.38;5029872;28;20029;-81
2021/06/02 08:20:10;;;;;;;3.87;1.70;;;;;;;27.38;27.51;101607.91;5014540;28;20034;-82
2021/06/02 08:22:35;;;;;;;;;;;;;;;29.28;25.46;101604.31;5014718;28;20393;-80
2021/06/02 08:25:07;;;;;;;5.47;1.83;;;;;;;30.95;22.33;101600.50;5016416;28;20612;-84
2021/06/02 08:27:32;;;;;;;4.22;1.60;;;;;;;32.70;21.00;101599.75;4994340;28;20022;-78
2021/06/02 08:29:58;;;;;;;6.40;1.90;;;;;;;29.14;24.05;101589.44;5012273;28;20026;-85
2021/06/02 08:32:24;;;;;;;5.27;1.57;;;;;;;29.16;23.71;101594.78;5014040;28;20022;-79
2021/06/02 08:34:51;;;;;;;10.15;2.00;;;;;;;30.34;22.63;101590.00;5013887;28;20022;-80
2021/06/02 08:37:16;;;;;;;;;;;;;;;28.87;24.91;101595.59;5033127;28;20041;-79
2021/06/02 08:39:42;;;;;;;5.30;2.27;;;;;;;28.28;26.10;101597.16;5033260;28;19917;-78
2021/06/02 08:42:08;;;;;;;5.50;1.90;;;;;;;27.98;25.84;101592.59;5016608;28;20033;-81
2021/06/02 08:44:33;;;;;;;8.77;2.45;;;;;;;29.30;24.49;101585.59;5032302;28;20025;-78
2021/06/02 08:47:01;;;;;;;4.53;2.27;;;;;;;29.40;24.08;101590.81;5013395;28;20470;-78
2021/06/02 08:49:26;;;;;;;5.97;2.10;;;;;;;30.59;22.52;101585.72;5003029;28;20473;-79
2021/06/02 08:51:53;;;;;;;7.00;1.50;;;;;;;31.47;21.21;101590.78;4993889;28;20050;-88
2021/06/02 08:54:18;;;;;;;;;;;;;;;33.23;18.98;101586.78;5016274;28;20034;-80
2021/06/02 08:56:44;;;;;;;5.40;1.92;;;;;;;33.07;19.29;101585.34;5029479;28;20043;-80
2021/06/02 08:59:09;;;;;;;6.78;1.70;;;;;;;33.41;18.08;101583.31;5013592;28;20056;-82
2021/06/02 09:01:35;;;;;;;6.75;1.70;;;;;;;34.07;18.36;101582.94;5013271;28;20026;-80
2021/06/02 09:04:07;;;;;;;4.17;1.83;;;;;;;32.90;19.34;101571.88;5013509;28;20038;-79
2021/06/02 09:06:33;;;;;;;5.47;1.75;;;;;;;34.32;17.13;101580.19;5013342;28;20101;-79
2021/06/02 09:09:02;;;;;;;5.65;1.60;;;;;;;34.48;17.74;101577.91;5014500;28;20046;-82
2021/06/02 09:11:27;;;;;;;4.18;1.55;;;;;;;36.38;15.81;101559.19;4998787;28;20029;-80
2021/06/02 09:13:52;;;;;;;4.43;1.50;;;;;;;36.12;14.99;101577.28;5018587;28;20033;-84
2021/06/02 09:16:28;;;;;;;6.20;2.10;;;;;;;34.82;17.22;101576.53;5032939;28;20520;-79
2021/06/02 09:19:04;;;;;;;3.47;1.75;;;;;;;34.66;17.25;101582.72;5024783;28;20030;-79
2021/06/02 09:21:30;;;;;;;;;;;;;;;32.39;19.80;101583.69;5013904;28;20025;-81
2021/06/02 09:23:56;;;;;;;4.40;1.73;;;;;;;31.94;19.68;101586.19;5033010;28;19920;-80
2021/06/02 09:26:23;;;;;;;3.85;1.77;;;;;;;33.76;18.37;101578.22;5032743;28;20079;-80
2021/06/02 09:28:52;;;;;;;5.65;1.80;;;;;;;32.06;19.30;101583.69;5000378;28;20033;-79
2021/06/02 09:31:30;;;;;;;3.67;1.75;;;;;;;34.05;17.16;101575.91;5014148;28;20030;-79
2021/06/02 09:33:59;;;;;;;5.03;2.20;;;;;;;29.90;20.88;101586.34;5013231;28;20064;-79
2021/06/02 09:36:33;;;;;;;6.57;1.52;;;;;;;29.18;23.61;101591.84;4996681;28;20030;-79
2021/06/02 09:39:00;;;;;;;5.63;2.05;;;;;;;27.04;25.52;101582.34;5013230;28;20025;-79
2021/06/02 09:41:28;;;;;;;6.82;2.15;;;;;;;29.37;23.45;101577.38;5012324;28;20033;-79
2021/06/02 09:43:53;;;;;;;7.75;2.50;;;;;;;30.55;21.75;101575.22;4997322;28;20113;-79
2021/06/02 09:46:20;;;;;;;7.17;1.90;;;;;;;30.59;20.83;101571.84;5012963;28;20483;-79
2021/06/02 09:48:48;;;;;;;7.57;2.30;;;;;;;28.62;23.93;101583.97;5012828;28;20076;-78
2021/06/02 09:51:35;;;;;;;6.57;2.40;;;;;;;27.60;25.08;101573.16;5013778;28;20464;-79
2021/06/02 09:54:02;;;;;;;6.45;1.90;;;;;;;25.64;27.90;101583.38;5012875;28;20546;-78
2021/06/02 09:56:38;;;;;;;6.53;1.73;;;;;;;28.60;25.34;101584.13;5012422;28;20022;-79
2021/06/02 09:59:04;;;;;;;4.82;1.95;;;;;;;30.70;22.51;101586.19;5012480;28;20033;-79
2021/06/02 10:01:48;;;;;;;;;;;;;;;29.94;22.87;101576.59;5012805;28;20030;-79
2021/06/02 10:04:14;;;;;;;7.70;1.90;;;;;;;32.85;19.48;101579.19;5028871;28;19918;-81
2021/06/02 10:06:39;;;;;;;3.90;1.60;;;;;;;34.08;18.12;101565.13;5012344;28;20033;-79
2021/06/02 10:09:07;;;;;;;3.60;1.70;;;;;;;33.84;18.14;101577.09;5012324;28;20042;-80
2021/06/02 10:11:34;;;;;;;3.78;1.48;;;;;;;35.10;17.19;101570.44;5005369;28;20056;-79
2021/06/02 10:14:01;;;;;;;6.57;1.50;;;;;;;34.41;17.37;101563.19;4993062;28;20030;-79
2021/06/02 10:16:34;;;;;;;8.43;1.90;;;;;;;37.35;14.08;101554.97;4976590;28;20179;-80
2021/06/02 10:19:01;;;;;;;5.43;2.13;;;;;;;39.06;12.71;101556.53;4993036;28;20080;-79
2021/06/02 10:21:41;;;;;;;5.43;1.85;;;;;;;34.50;16.92;101554.28;5012067;28;20087;-79
2021/06/02 10:24:07;;;;;;;5.63;1.60;;;;;;;34.82;17.08;101562.59;5012569;28;20030;-82
2021/06/02 10:26:33;;;;;;;7.63;1.80;;;;;;;37.99;14.38;101549.19;5013360;28;20382;-81
2021/06/02 10:28:58;;;;;;;4.53;1.90;;;;;;;36.67;14.91;101550.94;5013139;28;20025;-82
2021/06/02 10:31:23;;;;;;;5.67;1.63;;;;;;;37.62;14.35;101546.81;5012474;28;20311;-83
2021/06/02 10:33:49;;;;;;;5.30;1.77;;;;;;;35.84;15.74;101561.13;5017964;28;20072;-82
2021/06/02 10:36:14;;;;;;;6.50;1.87;;;;;;;35.41;15.89;101551.78;5017438;28;20116;-80
2021/06/02 10:38:48;;;;;;;3.90;1.70;;;;;;;39.10;13.32;101557.69;5015983;28;20034;-80
2021/06/02 10:41:27;;;;;;;3.15;1.65;;;;;;;34.64;16.82;101557.84;5011665;28;20038;-79
2021/06/02 10:43:58;;;;;;;4.78;1.90;;;;;;;33.47;17.08;101549.84;4996183;28;20027;-80
2021/06/02 10:46:27;;;;;;;3.80;1.73;;;;;;;33.94;17.31;101560.75;4996310;28;20027;-78
2021/06/02 10:48:54;;;;;;;3.38;1.85;;;;;;;32.45;19.27;101560.59;4996261;28;20030;-78
2021/06/02 10:51:30;;;;;;;8.10;2.10;;;;;;;31.48;20.68;101564.69;5014238;28;20037;-79
2021/06/02 10:54:15;;;;;;;5.70;1.95;;;;;;;31.84;19.56;101556.03;5035673;28;20031;-78
2021/06/02 10:56:42;;;;;;;10.52;2.13;;;;;;;29.67;22.98;101560.69;4996781;28;20394;-78
2021/06/02 10:59:29;;;;;;;4.53;1.73;;;;;;;29.36;23.35;101562.69;5000433;28;20030;-77
2021/06/02 11:02:18;;;;;;;7.70;2.45;;;;;;;27.01;26.16;101552.34;5036619;28;20032;-78
2021/06/02 11:04:56;;;;;;;5.35;1.55;;;;;;;28.38;23.92;101551.84;5036154;28;20033;-78
2021/06/02 11:07:25;;;;;;;4.78;2.05;;;;;;;29.45;23.35;101544.06;5036844;28;20021;-78
2021/06/02 11:10:01;;;;;;;4.03;1.92;;;;;;;29.40;23.83;101546.53;5035529;28;20045;-78
2021/06/02 11:12:49;;;;;;;7.50;2.60;;;;;;;31.23;21.91;101545.78;5013439;28;20034;-77
2021/06/02 11:15:22;;;;;;;5.50;2.05;;;;;;;33.86;18.35;101545.16;4997161;28;20035;-79
2021/06/02 11:18:16;;;;;;;5.35;2.47;;;;;;;31.15;20.60;101565.38;4995637;28;20033;-77
2021/06/02 11:20:52;;;;;;;4.97;2.53;;;;;;;30.38;21.72;101549.69;5012221;28;20102;-77
2021/06/02 11:23:38;;;;;;;6.47;2.38;;;;;;;32.95;19.35;101543.38;5012038;28;20029;-78
2021/06/02 11:26:26;;;;;;;3.63;2.05;;;;;;;30.50;20.70;101552.81;5011884;28;20026;-78
2021/06/02 11:28:52;;;;;;;5.80;1.98;;;;;;;30.07;22.38;101547.28;4995526;28;20022;-78
2021/06/02 11:31:27;;;;;;;7.85;2.30;;;;;;;28.90;24.08;101548.22;5011691;28;20363;-78
2021/06/02 11:33:53;;;;;;;7.05;2.60;;;;;;;30.41;22.24;101541.84;5011572;28;20061;-78
2021/06/02 11:36:19;;;;;;;;;;;;;;;31.14;21.63;101554.47;4995629;28;20029;-79
2021/06/02 11:38:44;;;;;;;6.13;2.40;;;;;;;33.08;19.19;101539.75;4979090;28;19914;-78
2021/06/02 11:41:12;;;;;;;5.83;2.47;;;;;;;36.05;15.78;101535.41;5011362;28;20093;-78
2021/06/02 11:43:37;;;;;;;10.65;2.15;;;;;;;36.37;15.61;101535.94;5013326;28;20030;-77
2021/06/02 11:46:03;;;;;;;4.60;2.20;;;;;;;35.28;15.95;101535.19;5014755;28;20152;-78
2021/06/02 11:48:30;;;;;;;3.38;1.83;;;;;;;33.35;18.78;101534.06;5014651;28;20025;-78
2021/06/02 11:50:58;;;;;;;4.93;2.38;;;;;;;33.31;18.54;101540.06;5014621;28;20034;-78
2021/06/02 11:53:35;;;;;;;6.15;2.45;;;;;;;36.11;15.55;101539.19;5014728;28;20029;-78
2021/06/02 11:56:00;;;;;;;7.68;2.08;;;;;;;34.14;17.95;101535.50;5006583;28;20050;-77
2021/06/02 11:58:27;;;;;;;5.43;2.23;;;;;;;35.35;17.01;101530.41;5010132;28;20520;-78
2021/06/02 12:00:52;;;;;;;6.50;2.13;;;;;;;34.93;17.77;101539.50;5014317;28;20022;-77